Terminal Aerodrome Forecast
Issued by NWS St Louis, MO

Home | Current Version | Previous Version | Graphics & Text | Print | Product List | Glossary On
Versions: 1 2 3 4 5 6 7 8 9 10 11 12 13 14 15 16 17 18 19 20 21 22 23 24 25
000
FTUS43 KLSX 240300 AAA
TAFSTL
TAF AMD
KSTL 240302Z 2403/2506 14008KT P6SM BKN080
     FM241500 16014G24KT P6SM BKN050
     FM242000 17014G24KT P6SM VCTS BKN040CB=

USA.gov is the U.S. government's official web portal to all federal, state and local government web resources and services.